Time,TemperatureF,DewpointF,PressureIn,WindDirection,WindDirectionDegrees,WindSpeedMPH,WindSpeedGustMPH,Humidity,HourlyPrecipIn,Conditions,Clouds,dailyrainin,SolarRadiationWatts/m^2,SoftwareType,DateUTC
2013-02-26 00:00:00,44.4,37.3,30.02,WSW,238,1.0,1.0,76,0.00,RA,,0.00,0.0,WeatherDisplay:10.37,2013-02-25 23:00:00,
2013-02-26 00:05:00,44.4,37.3,30.02,WSW,237,1.2,1.2,76,0.00,RA,,0.00,0.0,WeatherDisplay:10.37,2013-02-25 23:05:00,
2013-02-26 00:10:00,44.5,37.7,30.02,South,185,2.3,2.3,77,0.00,,,0.00,0.0,WeatherDisplay:10.37,2013-02-25 23:10:00,
2013-02-26 00:15:00,44.5,37.4,30.02,East,82,5.0,5.0,76,0.00,,,0.00,0.0,WeatherDisplay:10.37,2013-02-25 23:15:00,
2013-02-26 00:20:00,44.6,37.5,30.02,NE,40,4.6,4.6,76,0.00,,,0.00,0.0,WeatherDisplay:10.37,2013-02-25 23:20:00,
2013-02-26 00:25:00,44.7,37.3,30.02,NE,50,4.6,4.6,75,0.00,,,0.00,0.0,WeatherDisplay:10.37,2013-02-25 23:25:00,
2013-02-26 00:30:00,44.8,37.4,30.02,NE,38,5.8,5.8,75,0.00,,,0.00,0.0,WeatherDisplay:10.37,2013-02-25 23:30:00,
2013-02-26 00:35:00,44.8,37.4,30.02,SW,215,4.6,4.6,75,0.00,,,0.00,0.0,WeatherDisplay:10.37,2013-02-25 23:35:00,
2013-02-26 00:40:00,44.8,37.4,30.02,SW,233,5.8,5.8,75,0.00,,,0.00,0.0,WeatherDisplay:10.37,2013-02-25 23:40:00,
2013-02-26 00:45:00,44.7,37.3,30.02,SW,225,3.5,3.5,75,0.00,,,0.00,0.0,WeatherDisplay:10.37,2013-02-25 23:45:00,
2013-02-26 00:50:00,44.4,37.0,30.02,WSW,246,5.8,5.8,75,0.00,,,0.00,0.0,WeatherDisplay:10.37,2013-02-25 23:50:00,
2013-02-26 00:55:00,44.3,37.2,30.02,SSW,205,3.5,3.5,76,0.00,,,0.00,0.0,WeatherDisplay:10.37,2013-02-25 23:55:00,
2013-02-26 01:00:00,44.3,37.2,30.02,SW,232,4.6,4.6,76,0.00,,,0.00,0.0,WeatherDisplay:10.37,2013-02-26 00:00:00,
2013-02-26 01:05:00,44.5,37.1,30.02,SE,127,4.0,4.0,75,0.00,,,0.00,0.0,WeatherDisplay:10.37,2013-02-26 00:05:00,
2013-02-26 01:10:00,44.5,37.1,30.02,SW,214,4.6,4.6,75,0.00,,,0.00,0.0,WeatherDisplay:10.37,2013-02-26 00:10:00,
2013-02-26 01:15:00,44.6,37.2,30.02,SW,230,4.0,4.0,75,0.00,,,0.00,0.0,WeatherDisplay:10.37,2013-02-26 00:15:00,
2013-02-26 01:20:00,44.6,37.2,30.02,NE,51,4.6,4.6,75,0.00,,,0.00,0.0,WeatherDisplay:10.37,2013-02-26 00:20:00,
2013-02-26 01:25:00,44.7,36.9,30.02,SW,230,3.5,3.5,74,0.00,,,0.00,0.0,WeatherDisplay:10.37,2013-02-26 00:25:00,
2013-02-26 01:30:00,44.8,37.0,30.02,North,360,4.6,4.6,74,0.00,,,0.00,0.0,WeatherDisplay:10.37,2013-02-26 00:30:00,
2013-02-26 01:35:00,44.9,37.1,30.01,NW,313,4.6,4.6,74,0.00,,,0.00,0.0,WeatherDisplay:10.37,2013-02-26 00:35:00,
2013-02-26 01:40:00,45.0,37.2,30.01,SSW,194,4.6,4.6,74,0.00,,,0.00,0.0,WeatherDisplay:10.37,2013-02-26 00:40:00,
2013-02-26 01:45:00,45.0,37.2,30.01,SE,144,3.5,3.5,74,0.00,,,0.00,0.0,WeatherDisplay:10.37,2013-02-26 00:45:00,
2013-02-26 01:50:00,45.0,36.9,30.01,SSW,198,4.6,4.6,73,0.00,,,0.00,0.0,WeatherDisplay:10.37,2013-02-26 00:50:00,
2013-02-26 01:55:00,45.1,37.0,30.01,NE,37,4.6,4.6,73,0.00,,,0.00,0.0,WeatherDisplay:10.37,2013-02-26 00:55:00,
2013-02-26 02:00:00,45.3,37.2,30.01,SE,134,4.6,4.6,73,0.00,,,0.00,0.0,WeatherDisplay:10.37,2013-02-26 01:00:00,
2013-02-26 02:05:00,45.4,36.9,30.01,West,261,6.9,6.9,72,0.00,,,0.00,0.0,WeatherDisplay:10.37,2013-02-26 01:05:00,
2013-02-26 02:10:00,45.4,36.9,30.01,SW,216,4.6,4.6,72,0.00,,,0.00,0.0,WeatherDisplay:10.37,2013-02-26 01:10:00,
2013-02-26 02:15:00,45.3,36.8,30.00,SW,234,4.6,4.6,72,0.00,,,0.00,0.0,WeatherDisplay:10.37,2013-02-26 01:15:00,
2013-02-26 02:20:00,45.3,36.8,30.00,West,275,4.6,4.6,72,0.00,,,0.00,0.0,WeatherDisplay:10.37,2013-02-26 01:20:00,
2013-02-26 02:25:00,45.2,36.7,30.00,SE,130,3.5,3.5,72,0.00,,,0.00,0.0,WeatherDisplay:10.37,2013-02-26 01:25:00,
2013-02-26 02:30:00,45.1,36.6,30.01,ESE,117,3.5,3.5,72,0.00,,,0.00,0.0,WeatherDisplay:10.37,2013-02-26 01:30:00,
2013-02-26 02:35:00,45.0,36.5,30.01,West,272,9.2,9.2,72,0.00,,,0.00,0.0,WeatherDisplay:10.37,2013-02-26 01:35:00,
2013-02-26 02:41:00,44.8,36.7,30.00,West,279,5.8,5.8,73,0.00,,,0.00,0.0,WeatherDisplay:10.37,2013-02-26 01:41:00,
2013-02-26 02:46:00,44.8,36.7,30.00,North,360,3.5,3.5,73,0.00,,,0.00,0.0,WeatherDisplay:10.37,2013-02-26 01:46:00,
2013-02-26 02:51:00,44.8,36.7,30.01,WSW,245,3.0,3.0,73,0.00,,,0.00,0.0,WeatherDisplay:10.37,2013-02-26 01:51:00,
2013-02-26 02:56:00,44.8,36.7,30.01,NW,305,3.5,3.5,73,0.00,,,0.00,0.0,WeatherDisplay:10.37,2013-02-26 01:56:00,
2013-02-26 03:01:00,44.7,36.6,30.01,NW,305,3.5,3.5,73,0.00,,,0.00,0.0,WeatherDisplay:10.37,2013-02-26 02:01:00,
2013-02-26 03:06:00,44.7,36.6,30.01,WNW,286,3.5,3.5,73,0.00,,,0.00,0.0,WeatherDisplay:10.37,2013-02-26 02:06:00,
2013-02-26 03:11:00,44.7,36.6,30.00,West,266,3.5,3.5,73,0.00,,,0.00,0.0,WeatherDisplay:10.37,2013-02-26 02:11:00,
2013-02-26 03:16:00,44.7,36.9,30.00,NW,314,3.5,3.5,74,0.00,,,0.00,0.0,WeatherDisplay:10.37,2013-02-26 02:16:00,
2013-02-26 03:21:00,44.7,36.9,30.00,SW,231,4.0,4.0,74,0.00,,,0.00,0.0,WeatherDisplay:10.37,2013-02-26 02:21:00,
2013-02-26 03:26:00,44.7,36.9,30.00,SSE,155,3.5,3.5,74,0.00,,,0.00,0.0,WeatherDisplay:10.37,2013-02-26 02:26:00,
2013-02-26 03:31:00,44.7,36.9,30.00,SW,217,5.8,5.8,74,0.00,,,0.00,0.0,WeatherDisplay:10.37,2013-02-26 02:31:00,
2013-02-26 03:36:00,44.6,36.8,30.00,NE,54,3.5,3.5,74,0.00,,,0.00,0.0,WeatherDisplay:10.37,2013-02-26 02:36:00,
2013-02-26 03:41:00,44.6,36.8,30.00,SW,227,4.0,4.0,74,0.00,,,0.00,0.0,WeatherDisplay:10.37,2013-02-26 02:41:00,
2013-02-26 03:46:00,44.8,37.0,30.00,WSW,249,4.0,4.0,74,0.00,,,0.00,0.0,WeatherDisplay:10.37,2013-02-26 02:46:00,
2013-02-26 03:51:00,45.1,37.0,30.00,West,260,4.6,4.6,73,0.00,,,0.00,0.0,WeatherDisplay:10.37,2013-02-26 02:51:00,
2013-02-26 03:56:00,45.1,37.0,30.00,West,260,3.5,3.5,73,0.00,,,0.00,0.0,WeatherDisplay:10.37,2013-02-26 02:56:00,
2013-02-26 04:01:00,45.1,37.0,30.01,NNW,329,3.5,3.5,73,0.00,,,0.00,0.0,WeatherDisplay:10.37,2013-02-26 03:01:00,
2013-02-26 04:06:00,45.2,36.7,30.01,SSE,168,3.5,3.5,72,0.00,,,0.00,0.0,WeatherDisplay:10.37,2013-02-26 03:06:00,
2013-02-26 04:11:00,45.2,36.7,30.01,SSW,202,3.5,3.5,72,0.00,,,0.00,0.0,WeatherDisplay:10.37,2013-02-26 03:11:00,
2013-02-26 04:16:00,45.2,36.7,30.01,SW,224,3.0,3.0,72,0.00,,,0.00,0.0,WeatherDisplay:10.37,2013-02-26 03:16:00,
2013-02-26 04:21:00,45.2,36.7,30.01,NNW,348,3.5,3.5,72,0.00,,,0.00,0.0,WeatherDisplay:10.37,2013-02-26 03:21:00,
2013-02-26 04:26:00,45.2,36.7,30.01,North,5,3.5,3.5,72,0.00,,,0.00,0.0,WeatherDisplay:10.37,2013-02-26 03:26:00,
2013-02-26 04:31:00,45.2,36.7,30.01,SSW,206,3.5,3.5,72,0.00,,,0.00,0.0,WeatherDisplay:10.37,2013-02-26 03:31:00,
2013-02-26 04:36:00,45.2,36.7,30.01,ENE,60,3.5,3.5,72,0.00,,,0.00,0.0,WeatherDisplay:10.37,2013-02-26 03:36:00,
2013-02-26 04:41:00,45.2,36.7,30.01,NE,49,6.0,6.0,72,0.00,SCT,,0.00,0.0,WeatherDisplay:10.37,2013-02-26 03:41:00,
2013-02-26 04:46:00,45.2,36.7,30.01,South,191,3.5,3.5,72,0.00,SCT,,0.00,0.0,WeatherDisplay:10.37,2013-02-26 03:46:00,
2013-02-26 04:51:00,45.2,36.7,30.01,NNE,25,3.5,3.5,72,0.00,SCT,,0.00,0.0,WeatherDisplay:10.37,2013-02-26 03:51:00,
2013-02-26 04:56:00,45.3,36.4,30.02,NE,40,4.6,4.6,71,0.00,SCT,,0.00,0.0,WeatherDisplay:10.37,2013-02-26 03:56:00,
2013-02-26 05:01:00,45.3,36.4,30.02,NNE,28,4.6,4.6,71,0.00,SCT,,0.00,0.0,WeatherDisplay:10.37,2013-02-26 04:01:00,
2013-02-26 05:06:00,45.5,36.6,30.02,NNE,13,5.8,5.8,71,0.00,SCT,,0.00,0.0,WeatherDisplay:10.37,2013-02-26 04:06:00,
2013-02-26 05:11:00,45.8,36.6,30.02,NNE,31,5.8,5.8,70,0.00,SCT,,0.00,0.0,WeatherDisplay:10.37,2013-02-26 04:11:00,
2013-02-26 05:16:00,45.9,36.3,30.02,NNE,24,3.0,3.0,69,0.00,SCT,,0.00,0.0,WeatherDisplay:10.37,2013-02-26 04:16:00,
2013-02-26 05:21:00,46.0,36.4,30.02,West,275,3.5,3.5,69,0.00,SCT,,0.00,0.0,WeatherDisplay:10.37,2013-02-26 04:21:00,
2013-02-26 05:26:00,46.0,36.4,30.02,NNW,335,1.2,1.2,69,0.00,SCT,,0.00,0.0,WeatherDisplay:10.37,2013-02-26 04:26:00,
2013-02-26 05:31:00,46.1,36.1,30.02,ENE,57,3.5,3.5,68,0.00,SCT,,0.00,0.0,WeatherDisplay:10.37,2013-02-26 04:31:00,
2013-02-26 05:36:00,46.1,36.1,30.02,NE,49,4.0,4.0,68,0.00,SCT,,0.00,0.0,WeatherDisplay:10.37,2013-02-26 04:36:00,
2013-02-26 05:41:00,46.1,36.1,30.02,NNE,32,3.5,3.5,68,0.00,BKN,,0.00,0.0,WeatherDisplay:10.37,2013-02-26 04:41:00,
2013-02-26 05:46:00,46.1,36.1,30.02,SSE,167,2.0,2.0,68,0.00,BKN,,0.00,0.0,WeatherDisplay:10.37,2013-02-26 04:46:00,
2013-02-26 05:51:00,46.0,36.0,30.02,ENE,73,3.5,3.5,68,0.00,BKN,,0.00,0.0,WeatherDisplay:10.37,2013-02-26 04:51:00,
2013-02-26 05:56:00,46.0,36.0,30.02,ENE,75,3.5,3.5,68,0.00,BKN,,0.00,0.0,WeatherDisplay:10.37,2013-02-26 04:56:00,
2013-02-26 06:00:00,46.0,36.0,30.02,NNE,24,3.5,3.5,68,0.00,BKN,,0.00,0.0,WeatherDisplay:10.37,2013-02-26 05:00:00,
2013-02-26 06:01:00,45.9,35.9,30.02,NNW,342,3.5,3.5,68,0.00,BKN,,0.00,0.0,WeatherDisplay:10.37,2013-02-26 05:01:00,
2013-02-26 06:06:00,45.9,36.3,30.03,NNE,14,2.3,2.3,69,0.00,BKN,,0.00,0.0,WeatherDisplay:10.37,2013-02-26 05:06:00,
2013-02-26 06:11:00,45.8,36.2,30.03,NNE,14,1.0,1.0,69,0.00,BKN,,0.00,0.0,WeatherDisplay:10.37,2013-02-26 05:11:00,
2013-02-26 06:16:00,45.8,36.6,30.03,SW,215,2.3,2.3,70,0.00,BKN,,0.00,0.0,WeatherDisplay:10.37,2013-02-26 05:16:00,
2013-02-26 06:21:00,45.7,36.5,30.03,SW,219,1.2,1.2,70,0.00,BKN,,0.00,0.0,WeatherDisplay:10.37,2013-02-26 05:21:00,
2013-02-26 06:26:00,45.7,36.5,30.04,East,89,1.2,1.2,70,0.00,BKN,,0.00,0.0,WeatherDisplay:10.37,2013-02-26 05:26:00,
2013-02-26 06:31:00,45.7,36.8,30.04,East,89,0.0,0.0,71,0.00,BKN,,0.00,0.0,WeatherDisplay:10.37,2013-02-26 05:31:00,
2013-02-26 06:36:00,45.6,37.1,30.04,ENE,78,1.2,1.2,72,0.00,BKN,,0.00,0.0,WeatherDisplay:10.37,2013-02-26 05:36:00,
2013-02-26 06:41:00,45.7,37.5,30.04,ENE,61,1.2,1.2,73,0.00,BKN,,0.00,0.0,WeatherDisplay:10.37,2013-02-26 05:41:00,
2013-02-26 06:46:00,45.6,37.1,30.04,NE,47,1.2,0.0,72,0.00,BKN,,0.00,0.0,WeatherDisplay:10.37,2013-02-26 05:46:00,
2013-02-26 06:51:00,45.5,37.3,30.04,North,9,3.5,3.5,73,0.00,BKN,,0.00,0.0,WeatherDisplay:10.37,2013-02-26 05:51:00,
2013-02-26 06:56:00,45.6,37.4,30.04,North,355,3.5,3.5,73,0.00,BKN,,0.00,0.0,WeatherDisplay:10.37,2013-02-26 05:56:00,
2013-02-26 07:01:00,45.8,37.6,30.04,North,350,3.5,3.5,73,0.00,BKN,,0.00,0.0,WeatherDisplay:10.37,2013-02-26 06:01:00,
2013-02-26 07:06:00,45.7,37.9,30.04,North,360,4.6,4.6,74,0.00,BKN,,0.00,5.0,WeatherDisplay:10.37,2013-02-26 06:06:00,
2013-02-26 07:11:00,45.6,37.8,30.04,NNE,19,4.6,4.6,74,0.00,BKN,,0.00,7.0,WeatherDisplay:10.37,2013-02-26 06:11:00,
2013-02-26 07:16:00,45.9,38.1,30.04,SSE,153,3.5,3.5,74,0.00,BKN,,0.00,11.0,WeatherDisplay:10.37,2013-02-26 06:16:00,
2013-02-26 07:21:00,45.8,38.0,30.04,North,350,4.6,4.6,74,0.01,RA,,0.01,16.0,WeatherDisplay:10.37,2013-02-26 06:21:00,
2013-02-26 07:26:00,45.7,37.9,30.05,North,355,4.6,4.6,74,0.01,RA,,0.01,21.0,WeatherDisplay:10.37,2013-02-26 06:26:00,
2013-02-26 07:31:00,45.7,38.2,30.05,North,5,3.5,3.5,75,0.01,BKN,,0.01,26.0,WeatherDisplay:10.37,2013-02-26 06:31:00,
2013-02-26 07:36:00,45.6,38.1,30.05,NNE,32,5.0,5.0,75,0.01,BKN,,0.01,28.0,WeatherDisplay:10.37,2013-02-26 06:36:00,
2013-02-26 07:41:00,45.7,37.9,30.05,North,349,3.5,3.5,74,0.01,-RA,,0.01,30.0,WeatherDisplay:10.37,2013-02-26 06:41:00,
2013-02-26 07:46:00,45.8,38.0,30.05,North,10,5.8,5.8,74,0.01,-RA,,0.01,33.0,WeatherDisplay:10.37,2013-02-26 06:46:00,
2013-02-26 07:51:00,45.7,38.2,30.05,NE,36,4.6,4.6,75,0.01,-RA,,0.01,42.0,WeatherDisplay:10.37,2013-02-26 06:51:00,
2013-02-26 07:56:00,45.6,38.1,30.05,NNW,344,3.5,3.5,75,0.01,-RA,,0.01,51.0,WeatherDisplay:10.37,2013-02-26 06:56:00,
2013-02-26 08:01:00,45.8,38.0,30.05,NNE,32,2.0,2.0,74,0.01,-RA,,0.01,58.0,WeatherDisplay:10.37,2013-02-26 07:01:00,
2013-02-26 08:06:00,45.9,38.4,30.05,NNE,17,3.5,3.5,75,0.01,-RA,,0.01,62.0,WeatherDisplay:10.37,2013-02-26 07:06:00,
2013-02-26 08:11:00,45.8,38.3,30.06,NNE,21,3.5,3.5,75,0.01,-RA,,0.01,63.0,WeatherDisplay:10.37,2013-02-26 07:11:00,
2013-02-26 08:16:00,46.1,39.0,30.05,NNE,27,1.2,1.2,76,0.01,-RA,,0.01,72.0,WeatherDisplay:10.37,2013-02-26 07:16:00,
2013-02-26 08:21:00,46.1,39.0,30.06,ESE,110,3.5,3.5,76,0.00,-RA,,0.01,84.0,WeatherDisplay:10.37,2013-02-26 07:21:00,
2013-02-26 08:26:00,46.0,39.2,30.06,NE,53,1.2,1.2,77,0.00,-RA,,0.01,95.0,WeatherDisplay:10.37,2013-02-26 07:26:00,
2013-02-26 08:31:00,45.8,39.0,30.06,ESE,103,5.8,5.8,77,0.00,OVC,,0.01,104.0,WeatherDisplay:10.37,2013-02-26 07:31:00,
2013-02-26 08:36:00,45.7,39.2,30.06,SE,135,2.3,2.3,78,0.00,OVC,,0.01,104.0,WeatherDisplay:10.37,2013-02-26 07:36:00,
2013-02-26 08:41:00,45.8,39.7,30.06,South,175,2.3,2.3,79,0.00,-DZ,,0.01,111.0,WeatherDisplay:10.37,2013-02-26 07:41:00,
2013-02-26 08:46:00,45.8,39.7,30.06,East,94,2.3,2.3,79,0.00,-DZ,,0.01,127.0,WeatherDisplay:10.37,2013-02-26 07:46:00,
2013-02-26 08:51:00,45.9,39.8,30.06,East,84,2.3,2.3,79,0.00,-DZ,,0.01,141.0,WeatherDisplay:10.37,2013-02-26 07:51:00,
2013-02-26 08:56:00,46.1,39.9,30.06,ENE,66,0.0,0.4,79,0.00,-DZ,,0.01,155.0,WeatherDisplay:10.37,2013-02-26 07:56:00,
2013-02-26 09:01:00,46.3,40.1,30.06,East,97,3.5,3.5,79,0.00,-DZ,,0.01,181.0,WeatherDisplay:10.37,2013-02-26 08:01:00,
2013-02-26 09:06:00,46.6,40.4,30.06,ESE,109,1.0,1.0,79,0.00,-DZ,,0.01,214.0,WeatherDisplay:10.37,2013-02-26 08:06:00,
2013-02-26 09:11:00,46.9,40.7,30.06,ESE,115,3.5,3.5,79,0.00,-DZ,,0.01,232.0,WeatherDisplay:10.37,2013-02-26 08:11:00,
2013-02-26 09:16:00,47.1,40.3,30.06,ESE,111,4.6,4.6,77,0.00,-DZ,,0.01,237.0,WeatherDisplay:10.37,2013-02-26 08:16:00,
2013-02-26 09:21:00,47.4,40.6,30.06,East,81,3.5,3.5,77,0.00,-DZ,,0.01,239.0,WeatherDisplay:10.37,2013-02-26 08:21:00,
2013-02-26 09:26:00,47.7,40.5,30.06,South,190,2.3,2.3,76,0.00,-DZ,,0.01,199.0,WeatherDisplay:10.37,2013-02-26 08:26:00,
2013-02-26 09:31:00,48.0,40.1,30.06,East,94,5.0,5.0,74,0.00,-DZ,,0.01,172.0,WeatherDisplay:10.37,2013-02-26 08:31:00,
2013-02-26 09:36:00,48.1,38.8,30.06,South,175,4.6,4.6,70,0.00,-DZ,,0.01,153.0,WeatherDisplay:10.37,2013-02-26 08:36:00,
2013-02-26 09:41:00,48.2,38.5,30.06,ENE,78,3.5,3.5,69,0.00,-DZ,,0.01,169.0,WeatherDisplay:10.37,2013-02-26 08:41:00,
2013-02-26 09:46:00,48.4,38.3,30.06,ENE,69,5.8,5.8,68,0.00,-DZ,,0.01,190.0,WeatherDisplay:10.37,2013-02-26 08:46:00,
2013-02-26 09:51:00,48.5,38.4,30.06,East,98,5.8,5.8,68,0.00,-DZ,,0.01,216.0,WeatherDisplay:10.37,2013-02-26 08:51:00,
2013-02-26 09:56:00,48.7,38.6,30.06,ESE,112,3.5,3.5,68,0.00,-DZ,,0.01,221.0,WeatherDisplay:10.37,2013-02-26 08:56:00,
2013-02-26 10:01:00,48.7,38.2,30.06,ESE,105,7.0,7.0,67,0.00,-DZ,,0.01,199.0,WeatherDisplay:10.37,2013-02-26 09:01:00,
2013-02-26 10:06:00,48.8,38.3,30.06,ESE,109,3.5,3.5,67,0.00,-DZ,,0.01,179.0,WeatherDisplay:10.37,2013-02-26 09:06:00,
2013-02-26 10:11:00,49.0,38.5,30.05,WSW,254,4.6,4.6,67,0.00,-DZ,,0.01,178.0,WeatherDisplay:10.37,2013-02-26 09:11:00,
2013-02-26 10:16:00,49.2,38.7,30.05,SE,138,4.6,4.6,67,0.00,-DZ,,0.01,197.0,WeatherDisplay:10.37,2013-02-26 09:16:00,
2013-02-26 10:21:00,49.4,38.5,30.06,ESE,107,3.5,3.5,66,0.00,BKN,,0.01,236.0,WeatherDisplay:10.37,2013-02-26 09:21:00,
2013-02-26 10:26:00,49.5,38.2,30.05,East,92,3.5,3.5,65,0.00,BKN,,0.01,244.0,WeatherDisplay:10.37,2013-02-26 09:26:00,
2013-02-26 10:31:00,49.6,38.3,30.05,ESE,107,4.6,4.6,65,0.00,BKN,,0.01,276.0,WeatherDisplay:10.37,2013-02-26 09:31:00,
2013-02-26 10:37:00,49.8,38.1,30.05,East,95,8.0,8.0,64,0.00,BKN,,0.01,322.0,WeatherDisplay:10.37,2013-02-26 09:37:00,
2013-02-26 10:42:00,50.0,38.3,30.05,ESE,111,5.0,5.0,64,0.00,SCT,,0.01,415.0,WeatherDisplay:10.37,2013-02-26 09:42:00,
2013-02-26 10:47:00,50.6,38.9,30.05,East,81,3.5,3.5,64,0.00,SCT,,0.01,571.0,WeatherDisplay:10.37,2013-02-26 09:47:00,
2013-02-26 10:52:00,51.2,38.6,30.05,West,268,3.5,3.5,62,0.00,SCT,,0.01,392.0,WeatherDisplay:10.37,2013-02-26 09:52:00,
2013-02-26 10:57:00,51.4,38.4,30.06,ESE,104,11.0,11.0,61,0.00,SCT,,0.01,369.0,WeatherDisplay:10.37,2013-02-26 09:57:00,
2013-02-26 11:02:00,51.2,38.2,30.06,East,84,9.2,9.2,61,0.00,SCT,,0.01,362.0,WeatherDisplay:10.37,2013-02-26 10:02:00,
2013-02-26 11:07:00,51.4,38.8,30.06,South,188,3.5,3.5,62,0.00,SCT,,0.01,513.0,WeatherDisplay:10.37,2013-02-26 10:07:00,
2013-02-26 11:12:00,52.1,39.1,30.06,ESE,121,5.8,5.8,61,0.00,SCT,,0.01,640.0,WeatherDisplay:10.37,2013-02-26 10:12:00,
2013-02-26 11:17:00,52.1,38.6,30.06,ESE,119,4.6,4.6,60,0.00,SCT,,0.01,754.0,WeatherDisplay:10.37,2013-02-26 10:17:00,
2013-02-26 11:22:00,52.0,37.7,30.06,East,98,10.4,10.4,58,0.00,SCT,,0.01,635.0,WeatherDisplay:10.37,2013-02-26 10:22:00,
2013-02-26 11:27:00,52.3,38.0,30.06,East,98,8.0,8.0,58,0.00,SCT,,0.01,624.0,WeatherDisplay:10.37,2013-02-26 10:27:00,
2013-02-26 11:32:00,52.3,37.5,30.06,East,82,9.2,9.2,57,0.00,SCT,,0.01,452.0,WeatherDisplay:10.37,2013-02-26 10:32:00,
2013-02-26 11:37:00,52.2,37.9,30.06,ENE,66,11.5,11.5,58,0.00,SCT,,0.01,432.0,WeatherDisplay:10.37,2013-02-26 10:37:00,
2013-02-26 11:42:00,52.4,37.6,30.06,West,276,3.5,3.5,57,0.00,SCT,,0.01,626.0,WeatherDisplay:10.37,2013-02-26 10:42:00,
2013-02-26 11:47:00,52.7,37.4,30.06,ESE,105,6.9,6.9,56,0.00,SCT,,0.01,336.0,WeatherDisplay:10.37,2013-02-26 10:47:00,
2013-02-26 11:52:00,52.7,37.4,30.06,NNE,30,2.3,2.3,56,0.00,SCT,,0.01,287.0,WeatherDisplay:10.37,2013-02-26 10:52:00,
2013-02-26 11:57:00,52.9,38.1,30.06,ESE,121,0.0,0.0,57,0.00,SCT,,0.01,251.0,WeatherDisplay:10.37,2013-02-26 10:57:00,
2013-02-26 12:02:00,53.0,37.7,30.06,SW,222,5.8,5.8,56,0.00,SCT,,0.01,251.0,WeatherDisplay:10.37,2013-02-26 11:02:00,
2013-02-26 12:07:00,53.0,37.7,30.06,WSW,254,3.5,3.5,56,0.00,SCT,,0.01,190.0,WeatherDisplay:10.37,2013-02-26 11:07:00,
2013-02-26 12:12:00,52.4,38.5,30.06,SW,232,6.0,6.0,59,0.00,SCT,,0.01,155.0,WeatherDisplay:10.37,2013-02-26 11:12:00,
2013-02-26 12:17:00,51.6,39.0,30.06,WSW,237,8.1,8.1,62,0.00,SCT,,0.01,149.0,WeatherDisplay:10.37,2013-02-26 11:17:00,
2013-02-26 12:22:00,51.2,39.0,30.06,WSW,252,8.1,8.1,63,0.00,SCT,,0.01,148.0,WeatherDisplay:10.37,2013-02-26 11:22:00,
2013-02-26 12:27:00,51.2,39.0,30.06,SSW,204,6.9,6.9,63,0.00,SCT,,0.01,132.0,WeatherDisplay:10.37,2013-02-26 11:27:00,
2013-02-26 12:32:00,51.3,39.1,30.06,SSW,206,5.8,5.8,63,0.00,SCT,,0.01,113.0,WeatherDisplay:10.37,2013-02-26 11:32:00,
2013-02-26 12:37:00,51.3,39.5,30.06,SW,231,5.8,5.8,64,0.00,SCT,,0.01,91.0,WeatherDisplay:10.37,2013-02-26 11:37:00,
2013-02-26 12:42:00,51.1,39.3,30.06,WSW,239,8.1,8.1,64,0.00,SCT,,0.01,83.0,WeatherDisplay:10.37,2013-02-26 11:42:00,
2013-02-26 12:47:00,51.0,39.6,30.06,WSW,258,8.1,8.1,65,0.00,SCT,,0.01,83.0,WeatherDisplay:10.37,2013-02-26 11:47:00,
2013-02-26 12:52:00,50.8,39.8,30.06,WSW,243,16.1,16.1,66,0.00,SCT,,0.01,86.0,WeatherDisplay:10.37,2013-02-26 11:52:00,
2013-02-26 12:57:00,50.4,39.9,30.06,West,280,9.2,9.2,67,0.00,SCT,,0.01,77.0,WeatherDisplay:10.37,2013-02-26 11:57:00,
2013-02-26 13:02:00,50.3,40.1,30.06,South,174,10.4,10.4,68,0.00,BKN,,0.01,69.0,WeatherDisplay:10.37,2013-02-26 12:02:00,
2013-02-26 13:07:00,50.1,39.9,30.06,SW,219,13.8,13.8,68,0.00,BKN,,0.01,65.0,WeatherDisplay:10.37,2013-02-26 12:07:00,
2013-02-26 13:12:00,50.1,40.3,30.06,NNW,335,8.1,8.1,69,0.00,BKN,,0.01,62.0,WeatherDisplay:10.37,2013-02-26 12:12:00,
2013-02-26 13:17:00,50.0,40.2,30.06,SW,214,6.9,6.9,69,0.00,BKN,,0.01,56.0,WeatherDisplay:10.37,2013-02-26 12:17:00,
2013-02-26 13:22:00,50.0,40.2,30.06,SW,235,10.4,10.4,69,0.00,BKN,,0.01,56.0,WeatherDisplay:10.37,2013-02-26 12:22:00,
2013-02-26 13:27:00,50.0,40.2,30.06,South,172,10.4,10.4,69,0.00,BKN,,0.01,60.0,WeatherDisplay:10.37,2013-02-26 12:27:00,
2013-02-26 13:32:00,49.9,40.1,30.06,SW,218,10.4,10.4,69,0.00,BKN,,0.01,65.0,WeatherDisplay:10.37,2013-02-26 12:32:00,
2013-02-26 13:37:00,50.0,40.2,30.06,SW,221,5.8,5.8,69,0.00,BKN,,0.01,77.0,WeatherDisplay:10.37,2013-02-26 12:37:00,
2013-02-26 13:42:00,50.0,40.2,30.06,WSW,257,6.9,6.9,69,0.00,BKN,,0.01,83.0,WeatherDisplay:10.37,2013-02-26 12:42:00,
2013-02-26 13:47:00,50.1,39.9,30.06,SW,234,8.0,8.0,68,0.00,BKN,,0.01,77.0,WeatherDisplay:10.37,2013-02-26 12:47:00,
2013-02-26 13:52:00,50.1,39.9,30.06,WSW,251,5.8,5.8,68,0.00,BKN,,0.01,72.0,WeatherDisplay:10.37,2013-02-26 12:52:00,
2013-02-26 13:57:00,50.1,39.9,30.06,West,271,9.0,9.0,68,0.00,BKN,,0.01,74.0,WeatherDisplay:10.37,2013-02-26 12:57:00,
2013-02-26 14:02:00,50.0,39.5,30.06,WSW,247,6.9,6.9,67,0.00,BKN,,0.01,74.0,WeatherDisplay:10.37,2013-02-26 13:02:00,
2013-02-26 14:07:00,50.1,39.6,30.06,SSW,194,3.5,3.5,67,0.00,BKN,,0.01,67.0,WeatherDisplay:10.37,2013-02-26 13:07:00,
2013-02-26 14:12:00,50.2,40.0,30.06,WSW,258,6.9,6.9,68,0.00,BKN,,0.01,58.0,WeatherDisplay:10.37,2013-02-26 13:12:00,
2013-02-26 14:17:00,50.0,39.5,30.06,West,265,6.9,6.9,67,0.00,BKN,,0.01,51.0,WeatherDisplay:10.37,2013-02-26 13:17:00,
2013-02-26 14:22:00,50.1,39.9,30.06,WSW,238,5.8,5.8,68,0.00,BKN,,0.01,47.0,WeatherDisplay:10.37,2013-02-26 13:22:00,
2013-02-26 14:27:00,50.0,39.8,30.06,West,262,5.8,5.8,68,0.00,BKN,,0.01,44.0,WeatherDisplay:10.37,2013-02-26 13:27:00,
2013-02-26 14:32:00,50.1,39.9,30.06,SW,227,4.0,4.0,68,0.00,BKN,,0.01,44.0,WeatherDisplay:10.37,2013-02-26 13:32:00,
2013-02-26 14:37:00,50.0,39.8,30.06,WSW,247,6.0,6.0,68,0.00,BKN,,0.01,44.0,WeatherDisplay:10.37,2013-02-26 13:37:00,
2013-02-26 14:42:00,49.9,39.8,30.06,West,270,5.0,5.0,68,0.00,BKN,,0.01,42.0,WeatherDisplay:10.37,2013-02-26 13:42:00,
2013-02-26 14:47:00,49.9,39.8,30.06,West,268,6.0,6.0,68,0.00,BKN,,0.01,46.0,WeatherDisplay:10.37,2013-02-26 13:47:00,
2013-02-26 14:52:00,49.8,40.0,30.06,West,266,5.0,5.0,69,0.00,BKN,,0.01,49.0,WeatherDisplay:10.37,2013-02-26 13:52:00,
2013-02-26 14:57:00,49.9,40.1,30.06,WSW,251,4.6,4.6,69,0.00,BKN,,0.01,53.0,WeatherDisplay:10.37,2013-02-26 13:57:00,
2013-02-26 15:02:00,49.9,39.8,30.06,WSW,240,5.8,5.8,68,0.00,BKN,,0.01,51.0,WeatherDisplay:10.37,2013-02-26 14:02:00,
2013-02-26 15:07:00,50.0,39.8,30.06,West,271,6.9,6.9,68,0.00,BKN,,0.01,44.0,WeatherDisplay:10.37,2013-02-26 14:07:00,
2013-02-26 15:12:00,50.0,39.8,30.06,WSW,238,6.9,6.9,68,0.00,BKN,,0.01,42.0,WeatherDisplay:10.37,2013-02-26 14:12:00,
2013-02-26 15:17:00,50.1,39.6,30.06,WSW,238,3.5,3.5,67,0.00,BKN,,0.01,42.0,WeatherDisplay:10.37,2013-02-26 14:17:00,
2013-02-26 15:22:00,50.1,39.6,30.06,WSW,247,4.0,4.0,67,0.00,BKN,,0.01,40.0,WeatherDisplay:10.37,2013-02-26 14:22:00,
2013-02-26 15:27:00,50.1,39.6,30.06,WSW,242,5.8,5.8,67,0.00,BKN,,0.01,35.0,WeatherDisplay:10.37,2013-02-26 14:27:00,
2013-02-26 15:32:00,50.1,39.6,30.06,WSW,242,6.9,6.9,67,0.00,BKN,,0.01,39.0,WeatherDisplay:10.37,2013-02-26 14:32:00,
2013-02-26 15:37:00,50.1,39.9,30.06,West,263,4.6,4.6,68,0.00,BKN,,0.01,58.0,WeatherDisplay:10.37,2013-02-26 14:37:00,
2013-02-26 15:42:00,50.1,40.3,30.06,SW,232,4.0,4.0,69,0.00,BKN,,0.01,62.0,WeatherDisplay:10.37,2013-02-26 14:42:00,
2013-02-26 15:48:00,50.1,40.3,30.06,SW,217,4.0,4.0,69,0.00,BKN,,0.01,58.0,WeatherDisplay:10.37,2013-02-26 14:48:00,
2013-02-26 15:53:00,50.1,40.7,30.06,WSW,241,4.0,4.0,70,0.00,BKN,,0.01,62.0,WeatherDisplay:10.37,2013-02-26 14:53:00,
2013-02-26 15:58:00,50.1,40.7,30.06,SW,236,3.5,3.5,70,0.00,BKN,,0.01,58.0,WeatherDisplay:10.37,2013-02-26 14:58:00,
2013-02-26 16:03:00,50.0,40.2,30.06,West,268,6.9,6.9,69,0.00,BKN,,0.01,60.0,WeatherDisplay:10.37,2013-02-26 15:03:00,
2013-02-26 16:08:00,50.1,40.7,30.06,WSW,241,3.5,3.5,70,0.00,BKN,,0.01,70.0,WeatherDisplay:10.37,2013-02-26 15:08:00,
2013-02-26 16:13:00,50.1,40.3,30.06,NNE,17,5.8,5.8,69,0.00,BKN,,0.01,69.0,WeatherDisplay:10.37,2013-02-26 15:13:00,
2013-02-26 16:18:00,50.1,40.7,30.06,SW,218,4.0,4.0,70,0.00,BKN,,0.01,58.0,WeatherDisplay:10.37,2013-02-26 15:18:00,
2013-02-26 16:23:00,50.1,40.3,30.06,West,261,3.5,3.5,69,0.00,BKN,,0.01,53.0,WeatherDisplay:10.37,2013-02-26 15:23:00,
2013-02-26 16:28:00,50.1,40.7,30.06,WSW,238,3.5,3.5,70,0.00,BKN,,0.01,46.0,WeatherDisplay:10.37,2013-02-26 15:28:00,
2013-02-26 16:33:00,50.2,40.8,30.06,WSW,246,4.6,4.6,70,0.00,BKN,,0.01,42.0,WeatherDisplay:10.37,2013-02-26 15:33:00,
2013-02-26 16:38:00,50.3,40.9,30.06,WSW,252,3.5,3.5,70,0.00,BKN,,0.01,46.0,WeatherDisplay:10.37,2013-02-26 15:38:00,
2013-02-26 16:43:00,50.3,40.9,30.06,West,259,4.0,4.0,70,0.00,OVC,,0.01,44.0,WeatherDisplay:10.37,2013-02-26 15:43:00,
2013-02-26 16:48:00,50.4,40.6,30.06,West,273,3.5,3.5,69,0.00,OVC,,0.01,35.0,WeatherDisplay:10.37,2013-02-26 15:48:00,
2013-02-26 16:53:00,50.2,40.4,30.06,WNW,303,3.5,3.5,69,0.00,OVC,,0.01,28.0,WeatherDisplay:10.37,2013-02-26 15:53:00,
2013-02-26 16:58:00,50.1,40.3,30.06,WNW,299,3.5,3.5,69,0.00,OVC,,0.01,28.0,WeatherDisplay:10.37,2013-02-26 15:58:00,
2013-02-26 17:03:00,50.0,39.8,30.06,NW,313,3.5,3.5,68,0.00,OVC,,0.01,26.0,WeatherDisplay:10.37,2013-02-26 16:03:00,
2013-02-26 17:08:00,50.0,39.8,30.06,WNW,284,3.5,3.5,68,0.00,OVC,,0.01,23.0,WeatherDisplay:10.37,2013-02-26 16:08:00,
2013-02-26 17:13:00,50.0,39.8,30.07,WNW,284,2.3,2.3,68,0.00,OVC,,0.01,19.0,WeatherDisplay:10.37,2013-02-26 16:13:00,
2013-02-26 17:18:00,50.1,39.9,30.07,WNW,284,2.3,2.3,68,0.00,OVC,,0.01,14.0,WeatherDisplay:10.37,2013-02-26 16:18:00,
2013-02-26 17:23:00,50.1,39.9,30.07,WNW,284,2.3,2.3,68,0.00,OVC,,0.01,11.0,WeatherDisplay:10.37,2013-02-26 16:23:00,
2013-02-26 17:28:00,50.1,39.9,30.07,WNW,284,2.3,2.3,68,0.00,OVC,,0.01,9.0,WeatherDisplay:10.37,2013-02-26 16:28:00,
2013-02-26 17:33:00,50.1,40.3,30.07,WNW,284,1.2,0.0,69,0.00,OVC,,0.01,7.0,WeatherDisplay:10.37,2013-02-26 16:33:00,
2013-02-26 17:38:00,50.0,40.6,30.07,WNW,284,1.2,1.2,70,0.00,OVC,,0.01,0.0,WeatherDisplay:10.37,2013-02-26 16:38:00,
2013-02-26 17:43:00,49.9,40.9,30.07,WNW,284,2.0,2.0,71,0.00,OVC,,0.01,0.0,WeatherDisplay:10.37,2013-02-26 16:43:00,
2013-02-26 17:48:00,49.8,41.1,30.07,WNW,284,2.3,2.3,72,0.00,OVC,,0.01,0.0,WeatherDisplay:10.37,2013-02-26 16:48:00,
2013-02-26 17:53:00,49.6,40.9,30.07,WNW,284,1.2,1.2,72,0.00,BKN,,0.01,0.0,WeatherDisplay:10.37,2013-02-26 16:53:00,
2013-02-26 17:58:00,49.5,41.2,30.07,WNW,284,1.2,1.2,73,0.00,BKN,,0.01,0.0,WeatherDisplay:10.37,2013-02-26 16:58:00,
2013-02-26 18:03:00,49.4,41.1,30.07,WNW,284,2.3,2.3,73,0.00,BKN,,0.01,0.0,WeatherDisplay:10.37,2013-02-26 17:03:00,
2013-02-26 18:08:00,49.2,40.9,30.08,NNW,338,2.3,2.3,73,0.00,BKN,,0.01,0.0,WeatherDisplay:10.37,2013-02-26 17:08:00,
2013-02-26 18:13:00,49.1,40.8,30.08,NNW,346,2.3,2.3,73,0.00,BKN,,0.01,0.0,WeatherDisplay:10.37,2013-02-26 17:13:00,
2013-02-26 18:18:00,49.0,40.7,30.08,NNW,346,2.3,2.3,73,0.00,BKN,,0.01,0.0,WeatherDisplay:10.37,2013-02-26 17:18:00,
2013-02-26 18:23:00,49.0,40.7,30.08,North,355,1.2,1.2,73,0.00,BKN,,0.01,0.0,WeatherDisplay:10.37,2013-02-26 17:23:00,
2013-02-26 18:28:00,49.0,40.7,30.08,North,355,1.2,1.2,73,0.00,BKN,,0.01,0.0,WeatherDisplay:10.37,2013-02-26 17:28:00,
2013-02-26 18:33:00,49.0,41.1,30.08,North,355,1.2,0.0,74,0.00,BKN,,0.01,0.0,WeatherDisplay:10.37,2013-02-26 17:33:00,
2013-02-26 18:38:00,48.9,41.0,30.08,ENE,62,2.3,2.3,74,0.00,BKN,,0.01,0.0,WeatherDisplay:10.37,2013-02-26 17:38:00,
2013-02-26 18:43:00,48.8,41.2,30.08,NE,56,1.2,1.2,75,0.00,BKN,,0.01,0.0,WeatherDisplay:10.37,2013-02-26 17:43:00,
2013-02-26 18:48:00,48.7,41.1,30.08,East,89,0.0,0.0,75,0.00,BKN,,0.01,0.0,WeatherDisplay:10.37,2013-02-26 17:48:00,
2013-02-26 18:53:00,48.5,40.9,30.08,East,88,2.3,2.3,75,0.00,BKN,,0.01,0.0,WeatherDisplay:10.37,2013-02-26 17:53:00,
2013-02-26 18:58:00,48.4,41.2,30.08,WSW,257,1.2,1.2,76,0.00,BKN,,0.01,0.0,WeatherDisplay:10.37,2013-02-26 17:58:00,
2013-02-26 19:03:00,48.5,41.3,30.08,NE,40,2.0,2.0,76,0.00,BKN,,0.01,0.0,WeatherDisplay:10.37,2013-02-26 18:03:00,
2013-02-26 19:08:00,48.4,41.2,30.09,NNW,348,1.2,1.2,76,0.00,BKN,,0.01,0.0,WeatherDisplay:10.37,2013-02-26 18:08:00,
2013-02-26 19:13:00,48.2,41.0,30.09,NNE,27,3.5,3.5,76,0.00,BKN,,0.01,0.0,WeatherDisplay:10.37,2013-02-26 18:13:00,
2013-02-26 19:18:00,48.1,40.9,30.09,North,5,2.3,2.3,76,0.00,BKN,,0.01,0.0,WeatherDisplay:10.37,2013-02-26 18:18:00,
2013-02-26 19:23:00,48.2,41.0,30.09,NE,43,1.2,1.2,76,0.00,BKN,,0.01,0.0,WeatherDisplay:10.37,2013-02-26 18:23:00,
2013-02-26 19:28:00,48.4,41.5,30.09,SW,231,1.2,1.2,77,0.00,BKN,,0.01,0.0,WeatherDisplay:10.37,2013-02-26 18:28:00,
2013-02-26 19:33:00,48.3,41.1,30.09,East,96,3.5,3.5,76,0.00,BKN,,0.01,0.0,WeatherDisplay:10.37,2013-02-26 18:33:00,
2013-02-26 19:38:00,48.3,41.1,30.09,WSW,244,2.3,2.3,76,0.00,BKN,,0.01,0.0,WeatherDisplay:10.37,2013-02-26 18:38:00,
2013-02-26 19:43:00,48.3,41.1,30.09,ENE,75,1.2,1.2,76,0.00,BKN,,0.01,0.0,WeatherDisplay:10.37,2013-02-26 18:43:00,
2013-02-26 19:49:00,48.2,41.0,30.09,ENE,63,0.0,0.0,76,0.00,BKN,,0.01,0.0,WeatherDisplay:10.37,2013-02-26 18:49:00,
2013-02-26 19:54:00,48.2,41.0,30.09,NE,53,1.2,1.2,76,0.00,BKN,,0.01,0.0,WeatherDisplay:10.37,2013-02-26 18:54:00,
2013-02-26 19:59:00,48.1,40.9,30.09,ENE,57,0.0,0.0,76,0.00,BKN,,0.01,0.0,WeatherDisplay:10.37,2013-02-26 18:59:00,
2013-02-26 20:04:00,48.1,41.2,30.09,ENE,57,1.2,0.0,77,0.00,BKN,,0.01,0.0,WeatherDisplay:10.37,2013-02-26 19:04:00,
2013-02-26 20:09:00,48.2,41.3,30.10,ENE,57,1.2,1.2,77,0.00,BKN,,0.01,0.0,WeatherDisplay:10.37,2013-02-26 19:09:00,
2013-02-26 20:14:00,48.3,41.1,30.10,ENE,57,1.2,0.0,76,0.00,BKN,,0.01,0.0,WeatherDisplay:10.37,2013-02-26 19:14:00,
2013-02-26 20:19:00,48.3,41.1,30.10,ENE,57,0.0,0.0,76,0.00,BKN,,0.01,0.0,WeatherDisplay:10.37,2013-02-26 19:19:00,
2013-02-26 20:24:00,48.3,41.1,30.10,ENE,57,1.2,1.2,76,0.00,BKN,,0.01,0.0,WeatherDisplay:10.37,2013-02-26 19:24:00,
2013-02-26 20:29:00,48.4,41.5,30.10,ENE,57,1.2,0.0,77,0.00,BKN,,0.01,0.0,WeatherDisplay:10.37,2013-02-26 19:29:00,
2013-02-26 20:34:00,48.3,41.4,30.11,NE,56,1.2,1.2,77,0.00,BKN,,0.01,0.0,WeatherDisplay:10.37,2013-02-26 19:34:00,
2013-02-26 20:39:00,48.2,41.3,30.11,SE,125,3.5,3.5,77,0.00,BKN,,0.01,0.0,WeatherDisplay:10.37,2013-02-26 19:39:00,
2013-02-26 20:44:00,48.0,41.1,30.11,WSW,247,2.3,2.3,77,0.00,BKN,,0.01,0.0,WeatherDisplay:10.37,2013-02-26 19:44:00,
2013-02-26 20:49:00,48.0,41.1,30.11,East,91,3.5,3.5,77,0.00,BKN,,0.01,0.0,WeatherDisplay:10.37,2013-02-26 19:49:00,
2013-02-26 20:54:00,47.9,41.0,30.11,NE,38,3.5,3.5,77,0.00,BKN,,0.01,0.0,WeatherDisplay:10.37,2013-02-26 19:54:00,
2013-02-26 20:59:00,47.7,40.8,30.11,NNE,21,3.5,3.5,77,0.00,BKN,,0.01,0.0,WeatherDisplay:10.37,2013-02-26 19:59:00,
2013-02-26 21:04:00,47.7,40.8,30.11,North,10,3.5,3.5,77,0.00,BKN,,0.01,0.0,WeatherDisplay:10.37,2013-02-26 20:04:00,
2013-02-26 21:09:00,47.9,41.0,30.11,East,88,4.6,4.6,77,0.00,BKN,,0.01,0.0,WeatherDisplay:10.37,2013-02-26 20:09:00,
2013-02-26 21:14:00,47.9,40.7,30.11,NE,34,3.5,3.5,76,0.00,BKN,,0.01,0.0,WeatherDisplay:10.37,2013-02-26 20:14:00,
2013-02-26 21:19:00,48.0,40.8,30.11,NE,40,5.0,5.0,76,0.00,BKN,,0.01,0.0,WeatherDisplay:10.37,2013-02-26 20:19:00,
2013-02-26 21:24:00,47.9,40.7,30.11,North,9,3.5,3.5,76,0.00,BKN,,0.01,0.0,WeatherDisplay:10.37,2013-02-26 20:24:00,
2013-02-26 21:29:00,47.9,40.7,30.11,NNE,19,3.5,3.5,76,0.00,BKN,,0.01,0.0,WeatherDisplay:10.37,2013-02-26 20:29:00,
2013-02-26 21:34:00,47.8,40.9,30.11,ESE,111,1.2,1.2,77,0.00,BKN,,0.01,0.0,WeatherDisplay:10.37,2013-02-26 20:34:00,
2013-02-26 21:39:00,47.9,41.0,30.11,West,279,2.3,2.3,77,0.00,BKN,,0.01,0.0,WeatherDisplay:10.37,2013-02-26 20:39:00,
2013-02-26 21:44:00,48.1,41.2,30.11,SSW,205,1.2,1.2,77,0.00,BKN,,0.01,0.0,WeatherDisplay:10.37,2013-02-26 20:44:00,
2013-02-26 21:49:00,48.1,40.9,30.12,West,273,1.2,1.2,76,0.00,BKN,,0.01,0.0,WeatherDisplay:10.37,2013-02-26 20:49:00,
2013-02-26 21:54:00,48.2,41.0,30.11,West,273,2.3,2.3,76,0.00,BKN,,0.01,0.0,WeatherDisplay:10.37,2013-02-26 20:54:00,
2013-02-26 21:59:00,48.3,41.1,30.12,SE,134,1.2,1.2,76,0.00,BKN,,0.01,0.0,WeatherDisplay:10.37,2013-02-26 20:59:00,
2013-02-26 22:04:00,48.0,40.8,30.11,ESE,121,1.2,1.2,76,0.00,BKN,,0.01,0.0,WeatherDisplay:10.37,2013-02-26 21:04:00,
2013-02-26 22:09:00,47.6,40.7,30.12,East,94,2.3,2.3,77,0.00,BKN,,0.01,0.0,WeatherDisplay:10.37,2013-02-26 21:09:00,
2013-02-26 22:14:00,47.2,40.7,30.11,East,82,3.5,3.5,78,0.00,BKN,,0.01,0.0,WeatherDisplay:10.37,2013-02-26 21:14:00,
2013-02-26 22:19:00,46.9,40.4,30.11,SW,225,3.5,3.5,78,0.00,BKN,,0.01,0.0,WeatherDisplay:10.37,2013-02-26 21:19:00,
2013-02-26 22:24:00,46.8,40.6,30.12,ENE,76,4.0,4.0,79,0.00,BKN,,0.01,0.0,WeatherDisplay:10.37,2013-02-26 21:24:00,
2013-02-26 22:29:00,46.7,40.5,30.11,SSE,147,3.5,3.5,79,0.00,BKN,,0.01,0.0,WeatherDisplay:10.37,2013-02-26 21:29:00,
2013-02-26 22:34:00,46.7,40.9,30.11,SSW,211,3.5,3.5,80,0.00,BKN,,0.01,0.0,WeatherDisplay:10.37,2013-02-26 21:34:00,
2013-02-26 22:39:00,46.8,41.0,30.11,SW,221,3.5,3.5,80,0.00,BKN,,0.01,0.0,WeatherDisplay:10.37,2013-02-26 21:39:00,
2013-02-26 22:44:00,46.8,41.0,30.11,East,80,2.3,2.3,80,0.00,BKN,,0.01,0.0,WeatherDisplay:10.37,2013-02-26 21:44:00,
2013-02-26 22:49:00,46.7,40.9,30.11,WSW,250,3.5,3.5,80,0.00,BKN,,0.01,0.0,WeatherDisplay:10.37,2013-02-26 21:49:00,
2013-02-26 22:54:00,46.7,40.9,30.11,North,350,3.5,3.5,80,0.00,BKN,,0.01,0.0,WeatherDisplay:10.37,2013-02-26 21:54:00,
2013-02-26 22:59:00,46.8,41.0,30.11,South,191,2.3,2.3,80,0.00,BKN,,0.01,0.0,WeatherDisplay:10.37,2013-02-26 21:59:00,
2013-02-26 23:04:00,46.8,41.0,30.11,ENE,67,4.0,4.0,80,0.00,BKN,,0.01,0.0,WeatherDisplay:10.37,2013-02-26 22:04:00,
2013-02-26 23:09:00,46.7,40.9,30.11,SSW,201,2.3,2.3,80,0.00,BKN,,0.01,0.0,WeatherDisplay:10.37,2013-02-26 22:09:00,
2013-02-26 23:14:00,46.6,40.4,30.11,North,360,2.3,2.3,79,0.00,BKN,,0.01,0.0,WeatherDisplay:10.37,2013-02-26 22:14:00,
2013-02-26 23:19:00,46.6,40.4,30.11,NE,43,2.3,2.3,79,0.00,BKN,,0.01,0.0,WeatherDisplay:10.37,2013-02-26 22:19:00,
2013-02-26 23:24:00,46.5,40.3,30.10,WSW,257,2.3,2.3,79,0.00,BKN,,0.01,0.0,WeatherDisplay:10.37,2013-02-26 22:24:00,
2013-02-26 23:29:00,46.3,40.1,30.10,SW,233,2.3,0.0,79,0.00,BKN,,0.01,0.0,WeatherDisplay:10.37,2013-02-26 22:29:00,
2013-02-26 23:34:00,46.3,40.1,30.10,NNE,20,3.5,3.5,79,0.00,BKN,,0.01,0.0,WeatherDisplay:10.37,2013-02-26 22:34:00,
2013-02-26 23:39:00,46.2,40.0,30.10,North,360,2.3,2.3,79,0.00,BKN,,0.01,0.0,WeatherDisplay:10.37,2013-02-26 22:39:00,
2013-02-26 23:44:00,46.2,40.0,30.11,NNE,12,0.0,2.0,79,0.00,BKN,,0.01,0.0,WeatherDisplay:10.37,2013-02-26 22:44:00,
2013-02-26 23:49:00,46.2,40.0,30.11,WSW,249,2.3,2.3,79,0.00,BKN,,0.01,0.0,WeatherDisplay:10.37,2013-02-26 22:49:00,
2013-02-26 23:54:00,46.2,40.0,30.10,SW,232,2.0,4.0,79,0.00,BKN,,0.01,0.0,WeatherDisplay:10.37,2013-02-26 22:54:00,
2013-02-26 23:59:00,46.2,40.0,30.11,NE,39,3.5,3.5,79,0.00,BKN,,0.01,0.0,WeatherDisplay:10.37,2013-02-26 22:59:00,